Time;durP1;ratioP1;P1;durP2;ratioP2;P2;SDS_P1;SDS_P2;PMS_P1;PMS_P2;Temp;Humidity;BMP_temperature;BMP_pressure;BME280_temperature;BME280_humidity;BME280_pressure;Samples;Min_cycle;Max_cycle;Signal;HPM_P1;HPM_P2
2022/07/07 00:01:26;;;;;;;3.80;0.55;;;;;;;;;;5036504;28;20036;-58
2022/07/07 00:03:53;;;;;;;1.75;0.70;;;;;;;;;;5032019;28;20033;-58
2022/07/07 00:06:19;;;;;;;0.82;0.30;;;;;;;;;;5012014;28;20030;-58
2022/07/07 00:08:46;;;;;;;3.17;0.50;;;;;;;;;;5035910;28;20029;-57
2022/07/07 00:11:12;;;;;;;0.52;0.40;;;;;;;;;;5036045;28;20562;-57
2022/07/07 00:13:38;;;;;;;3.17;0.90;;;;;;;;;;5046118;28;20121;-58
2022/07/07 00:16:04;;;;;;;2.13;0.30;;;;;;;;;;5047917;28;20383;-58
2022/07/07 00:18:30;;;;;;;1.42;0.50;;;;;;;;;;5034136;28;20048;-57
2022/07/07 00:20:56;;;;;;;1.27;0.52;;;;;;;;;;5046083;28;20025;-58
2022/07/07 00:23:22;;;;;;;1.25;0.50;;;;;;;;;;5033025;28;20025;-57
2022/07/07 00:25:48;;;;;;;2.63;0.50;;;;;;;;;;5038831;28;20026;-58
2022/07/07 00:28:14;;;;;;;6.25;0.77;;;;;;;;;;5031758;28;20042;-57
2022/07/07 00:30:40;;;;;;;1.05;0.50;;;;;;;;;;5033827;28;20381;-58
2022/07/07 00:33:06;;;;;;;4.30;0.45;;;;;;;;;;5027761;28;20030;-59
2022/07/07 00:35:32;;;;;;;3.30;0.50;;;;;;;;;;5024261;28;20030;-58
2022/07/07 00:37:58;;;;;;;3.25;0.60;;;;;;;;;;5033179;28;20449;-58
2022/07/07 00:40:24;;;;;;;3.15;0.55;;;;;;;;;;5029775;28;20041;-58
2022/07/07 00:42:50;;;;;;;1.27;0.40;;;;;;;;;;5030962;28;20045;-58
2022/07/07 00:45:16;;;;;;;1.98;0.60;;;;;;;;;;5032506;28;20025;-58
2022/07/07 00:47:42;;;;;;;1.88;0.70;;;;;;;;;;5015588;28;20156;-58
2022/07/07 00:50:10;;;;;;;1.63;0.70;;;;;;;;;;5031266;28;20478;-58
2022/07/07 00:52:36;;;;;;;1.00;0.50;;;;;;;;;;5031097;28;20133;-57
2022/07/07 00:55:02;;;;;;;3.42;0.70;;;;;;;;;;5031003;28;20061;-59
2022/07/07 00:57:29;;;;;;;2.63;0.57;;;;;;;;;;5032188;28;20033;-58
2022/07/07 01:00:04;;;;;;;2.83;1.13;;;;;;;;;;5030480;28;20041;-58
2022/07/07 01:02:31;;;;;;;3.72;1.08;;;;;;;;;;5029800;28;20104;-58
2022/07/07 01:05:01;;;;;;;2.05;0.50;;;;;;;;;;5033338;28;20025;-59
2022/07/07 01:07:27;;;;;;;2.10;0.70;;;;;;;;;;5026800;28;20025;-57
2022/07/07 01:09:54;;;;;;;1.27;0.50;;;;;;;;;;5038014;28;20033;-57
2022/07/07 01:12:20;;;;;;;1.88;0.50;;;;;;;;;;5029059;28;20037;-60
2022/07/07 01:14:46;;;;;;;1.95;0.65;;;;;;;;;;5031244;28;20026;-58
2022/07/07 01:17:12;;;;;;;2.35;0.70;;;;;;;;;;5032468;28;20033;-57
2022/07/07 01:19:38;;;;;;;1.33;0.50;;;;;;;;;;5030019;28;20483;-57
2022/07/07 01:22:07;;;;;;;1.23;0.50;;;;;;;;;;5029196;28;20049;-56
2022/07/07 01:24:33;;;;;;;4.65;0.70;;;;;;;;;;5029947;28;20044;-58
2022/07/07 01:27:12;;;;;;;1.08;0.70;;;;;;;;;;5027635;28;20041;-59
2022/07/07 01:29:40;;;;;;;4.30;0.60;;;;;;;;;;5030985;28;20489;-58
2022/07/07 01:32:08;;;;;;;2.00;1.00;;;;;;;;;;5026929;28;20424;-59
2022/07/07 01:34:34;;;;;;;5.45;0.80;;;;;;;;;;5028834;28;20791;-58
2022/07/07 01:37:00;;;;;;;2.88;0.80;;;;;;;;;;5043183;28;20025;-59
2022/07/07 01:39:26;;;;;;;2.35;0.57;;;;;;;;;;5029744;28;20520;-59
2022/07/07 01:41:52;;;;;;;1.65;0.80;;;;;;;;;;5028344;28;20029;-58
2022/07/07 01:44:18;;;;;;;1.98;0.80;;;;;;;;;;5032305;28;20049;-59
2022/07/07 01:46:44;;;;;;;1.10;0.70;;;;;;;;;;5030358;28;20211;-59
2022/07/07 01:49:11;;;;;;;3.88;0.90;;;;;;;;;;5030902;28;20037;-58
2022/07/07 01:51:37;;;;;;;3.67;0.90;;;;;;;;;;5030383;28;20513;-58
2022/07/07 01:54:03;;;;;;;3.78;0.88;;;;;;;;;;5030629;28;20029;-58
2022/07/07 01:56:29;;;;;;;2.83;1.40;;;;;;;;;;5029692;28;20098;-58
2022/07/07 01:58:55;;;;;;;2.55;0.70;;;;;;;;;;5028903;28;20119;-58
2022/07/07 02:01:21;;;;;;;5.45;0.85;;;;;;;;;;5027877;28;20098;-58
2022/07/07 02:03:47;;;;;;;5.70;1.00;;;;;;;;;;5030124;28;20505;-58
2022/07/07 02:06:13;;;;;;;3.45;0.75;;;;;;;;;;5029139;28;20116;-58
2022/07/07 02:08:39;;;;;;;4.00;0.98;;;;;;;;;;5033139;28;20409;-58
2022/07/07 02:11:14;;;;;;;2.35;0.88;;;;;;;;;;5029285;28;20053;-56
2022/07/07 02:13:40;;;;;;;1.45;0.70;;;;;;;;;;5028573;28;20033;-58
2022/07/07 02:16:07;;;;;;;2.65;1.10;;;;;;;;;;5028777;28;20065;-58
2022/07/07 02:18:34;;;;;;;3.70;0.90;;;;;;;;;;5032051;28;20485;-58
2022/07/07 02:21:00;;;;;;;2.17;1.10;;;;;;;;;;5037280;28;20029;-58
2022/07/07 02:23:26;;;;;;;4.82;1.40;;;;;;;;;;5031294;28;20036;-59
2022/07/07 02:25:53;;;;;;;2.10;0.90;;;;;;;;;;5026750;28;20096;-58
2022/07/07 02:28:20;;;;;;;5.93;1.15;;;;;;;;;;5028336;28;20037;-58
2022/07/07 02:30:46;;;;;;;3.22;1.15;;;;;;;;;;5028859;28;20029;-58
2022/07/07 02:33:12;;;;;;;5.35;1.00;;;;;;;;;;5027223;28;20041;-58
2022/07/07 02:35:38;;;;;;;4.15;1.25;;;;;;;;;;5028991;28;20104;-59
2022/07/07 02:38:04;;;;;;;3.88;1.40;;;;;;;;;;5030178;28;20087;-58
2022/07/07 02:40:30;;;;;;;2.75;1.00;;;;;;;;;;5031630;28;20029;-58
2022/07/07 02:42:56;;;;;;;3.47;1.48;;;;;;;;;;5027663;28;20068;-58
2022/07/07 02:45:22;;;;;;;2.17;0.95;;;;;;;;;;5029680;28;20029;-58
2022/07/07 02:47:48;;;;;;;2.15;1.30;;;;;;;;;;5030197;28;20022;-58
2022/07/07 02:50:14;;;;;;;2.95;1.23;;;;;;;;;;5030763;28;20249;-58
2022/07/07 02:52:40;;;;;;;4.90;1.48;;;;;;;;;;5036770;28;20033;-59
2022/07/07 02:55:06;;;;;;;3.03;0.93;;;;;;;;;;5030663;28;20113;-58
2022/07/07 02:57:32;;;;;;;5.80;1.20;;;;;;;;;;5030628;28;20029;-58
2022/07/07 02:59:58;;;;;;;15.35;1.30;;;;;;;;;;5024205;28;20065;-58
2022/07/07 03:02:24;;;;;;;4.28;1.35;;;;;;;;;;5028690;28;20072;-58
2022/07/07 03:04:50;;;;;;;4.03;1.40;;;;;;;;;;5030646;28;20426;-58
2022/07/07 03:07:19;;;;;;;3.10;1.42;;;;;;;;;;5027998;28;20028;-57
2022/07/07 03:09:45;;;;;;;5.45;1.50;;;;;;;;;;5029041;28;20052;-58
2022/07/07 03:12:11;;;;;;;3.33;1.00;;;;;;;;;;5028003;28;20382;-59
2022/07/07 03:14:37;;;;;;;2.08;1.23;;;;;;;;;;5028694;28;20036;-57
2022/07/07 03:17:03;;;;;;;2.53;1.35;;;;;;;;;;5028166;28;20477;-58
2022/07/07 03:19:29;;;;;;;3.55;1.45;;;;;;;;;;5028900;28;20025;-58
2022/07/07 03:21:55;;;;;;;5.30;1.50;;;;;;;;;;5027583;28;20048;-58
2022/07/07 03:24:21;;;;;;;3.53;1.40;;;;;;;;;;5028599;28;20136;-58
2022/07/07 03:26:47;;;;;;;6.07;1.20;;;;;;;;;;5029826;28;20061;-57
2022/07/07 03:29:13;;;;;;;3.90;1.58;;;;;;;;;;5030018;28;20508;-58
2022/07/07 03:31:39;;;;;;;4.40;1.30;;;;;;;;;;5027851;28;20022;-58
2022/07/07 03:34:05;;;;;;;3.63;1.60;;;;;;;;;;5025379;28;20021;-58
2022/07/07 03:36:31;;;;;;;4.85;1.33;;;;;;;;;;5024891;28;20021;-58
2022/07/07 03:38:57;;;;;;;3.40;1.23;;;;;;;;;;5029819;28;20037;-57
2022/07/07 03:41:23;;;;;;;4.28;1.40;;;;;;;;;;5030375;28;20500;-58
2022/07/07 03:43:49;;;;;;;6.20;1.20;;;;;;;;;;5030681;28;20087;-58
2022/07/07 03:46:15;;;;;;;4.07;1.17;;;;;;;;;;5028297;28;20536;-58
2022/07/07 03:48:41;;;;;;;3.83;1.30;;;;;;;;;;5031166;28;20384;-57
2022/07/07 03:51:08;;;;;;;2.58;1.52;;;;;;;;;;5032267;28;20067;-58
2022/07/07 03:53:34;;;;;;;2.38;1.08;;;;;;;;;;5031262;28;20026;-58
2022/07/07 03:56:00;;;;;;;2.08;1.27;;;;;;;;;;5031192;28;20116;-59
2022/07/07 03:58:26;;;;;;;3.25;1.38;;;;;;;;;;5028961;28;20034;-58
2022/07/07 04:00:52;;;;;;;4.40;1.30;;;;;;;;;;5031500;28;20037;-58
2022/07/07 04:03:18;;;;;;;5.75;1.50;;;;;;;;;;5029536;28;20032;-57
2022/07/07 04:05:44;;;;;;;3.22;1.67;;;;;;;;;;5016259;28;20030;-58
2022/07/07 04:08:10;;;;;;;3.10;1.70;;;;;;;;;;5032194;28;20037;-59
2022/07/07 04:10:36;;;;;;;4.35;1.60;;;;;;;;;;5027849;28;20151;-58
2022/07/07 04:13:02;;;;;;;4.25;1.70;;;;;;;;;;5033344;28;20037;-58
2022/07/07 04:15:28;;;;;;;3.42;1.63;;;;;;;;;;5033435;28;20181;-57
2022/07/07 04:17:54;;;;;;;3.38;1.60;;;;;;;;;;5032636;28;20037;-57
2022/07/07 04:20:20;;;;;;;3.55;1.80;;;;;;;;;;5032929;28;20374;-58
2022/07/07 04:22:46;;;;;;;4.53;1.85;;;;;;;;;;5030934;28;20079;-59
2022/07/07 04:25:12;;;;;;;4.53;1.75;;;;;;;;;;5029944;28;20025;-62
2022/07/07 04:27:38;;;;;;;6.10;2.25;;;;;;;;;;5032724;28;20033;-62
2022/07/07 04:30:05;;;;;;;5.85;2.03;;;;;;;;;;5032380;28;20026;-58
2022/07/07 04:32:30;;;;;;;6.20;2.10;;;;;;;;;;5032797;28;20045;-58
2022/07/07 04:34:56;;;;;;;3.42;1.85;;;;;;;;;;5032995;28;20034;-59
2022/07/07 04:37:22;;;;;;;3.53;1.92;;;;;;;;;;5032952;28;20496;-59
2022/07/07 04:39:48;;;;;;;3.20;1.67;;;;;;;;;;5027931;28;20033;-59
2022/07/07 04:42:14;;;;;;;3.95;2.10;;;;;;;;;;5029156;28;20026;-59
2022/07/07 04:44:40;;;;;;;4.03;1.90;;;;;;;;;;5029380;28;20081;-58
2022/07/07 04:47:06;;;;;;;4.75;1.70;;;;;;;;;;5032823;28;20396;-58
2022/07/07 04:49:32;;;;;;;5.03;1.67;;;;;;;;;;5032214;28;20452;-58
2022/07/07 04:51:58;;;;;;;7.47;1.70;;;;;;;;;;5028694;28;20026;-59
2022/07/07 04:54:24;;;;;;;2.97;1.80;;;;;;;;;;5029009;28;20025;-59
2022/07/07 04:56:50;;;;;;;3.60;1.80;;;;;;;;;;5032059;28;20396;-58
2022/07/07 04:59:16;;;;;;;2.45;1.80;;;;;;;;;;5027579;28;20103;-59
2022/07/07 05:01:42;;;;;;;5.28;1.95;;;;;;;;;;5031582;28;20032;-58
2022/07/07 05:04:08;;;;;;;2.88;1.80;;;;;;;;;;5029898;28;20079;-59
2022/07/07 05:06:34;;;;;;;2.22;1.60;;;;;;;;;;5029852;28;20025;-58
2022/07/07 05:09:00;;;;;;;6.43;2.15;;;;;;;;;;5032093;28;20501;-59
2022/07/07 05:11:26;;;;;;;4.07;2.08;;;;;;;;;;5031104;28;20101;-57
2022/07/07 05:13:52;;;;;;;3.42;1.80;;;;;;;;;;5032073;28;20029;-57
2022/07/07 05:16:18;;;;;;;4.55;1.48;;;;;;;;;;5031444;28;20131;-58
2022/07/07 05:18:44;;;;;;;5.10;2.20;;;;;;;;;;5032313;28;20025;-58
2022/07/07 05:21:10;;;;;;;2.78;1.45;;;;;;;;;;5028620;28;20053;-58
2022/07/07 05:23:36;;;;;;;3.58;1.40;;;;;;;;;;5021920;28;20038;-59
2022/07/07 05:26:02;;;;;;;2.00;1.42;;;;;;;;;;5029531;28;20112;-59
2022/07/07 05:28:30;;;;;;;5.55;1.48;;;;;;;;;;5029123;28;20041;-59
2022/07/07 05:30:59;;;;;;;3.28;1.45;;;;;;;;;;5029813;28;20027;-59
2022/07/07 05:33:25;;;;;;;2.67;1.45;;;;;;;;;;5031105;28;20041;-59
2022/07/07 05:35:52;;;;;;;4.80;1.52;;;;;;;;;;5028457;28;20507;-58
2022/07/07 05:38:18;;;;;;;7.20;2.20;;;;;;;;;;5031497;28;20041;-59
2022/07/07 05:40:44;;;;;;;3.95;1.90;;;;;;;;;;5027775;28;20033;-58
2022/07/07 05:43:10;;;;;;;3.00;1.67;;;;;;;;;;5030658;28;20033;-59
2022/07/07 05:45:36;;;;;;;5.18;1.40;;;;;;;;;;5031535;28;20080;-59
2022/07/07 05:48:02;;;;;;;3.13;2.00;;;;;;;;;;5028036;28;20034;-58
2022/07/07 05:50:28;;;;;;;4.63;2.00;;;;;;;;;;5029614;28;20060;-58
2022/07/07 05:52:54;;;;;;;3.50;1.85;;;;;;;;;;5019360;28;20410;-59
2022/07/07 05:55:20;;;;;;;3.45;1.63;;;;;;;;;;5031812;28;20017;-59
2022/07/07 05:57:46;;;;;;;3.28;1.77;;;;;;;;;;5021160;28;20037;-59
2022/07/07 06:00:12;;;;;;;7.10;1.98;;;;;;;;;;5027889;28;20451;-58
2022/07/07 06:02:38;;;;;;;2.72;1.90;;;;;;;;;;5028289;28;20100;-59
2022/07/07 06:05:05;;;;;;;3.65;1.90;;;;;;;;;;5030227;28;20033;-59
2022/07/07 06:07:31;;;;;;;2.38;1.70;;;;;;;;;;5031426;28;20021;-57
2022/07/07 06:09:57;;;;;;;3.00;1.58;;;;;;;;;;5028115;28;20080;-59
2022/07/07 06:12:23;;;;;;;1.85;1.52;;;;;;;;;;5029171;28;20022;-59
2022/07/07 06:14:49;;;;;;;2.58;1.50;;;;;;;;;;5012648;28;20029;-57
2022/07/07 06:17:16;;;;;;;3.60;1.90;;;;;;;;;;5031314;28;20029;-58
2022/07/07 06:19:42;;;;;;;5.72;1.95;;;;;;;;;;5030757;28;20061;-58
2022/07/07 06:22:08;;;;;;;1.73;1.60;;;;;;;;;;5020214;28;20033;-58
2022/07/07 06:24:34;;;;;;;1.52;1.40;;;;;;;;;;5028231;28;20548;-59
2022/07/07 06:27:00;;;;;;;2.55;1.40;;;;;;;;;;5028465;28;20052;-58
2022/07/07 06:29:26;;;;;;;1.70;1.10;;;;;;;;;;5028364;28;20029;-58
2022/07/07 06:31:52;;;;;;;2.50;1.30;;;;;;;;;;5025292;28;20101;-58
2022/07/07 06:34:18;;;;;;;1.30;1.00;;;;;;;;;;5024804;28;20092;-59
2022/07/07 06:36:44;;;;;;;1.60;1.15;;;;;;;;;;5028027;28;20060;-59
2022/07/07 06:39:10;;;;;;;2.20;1.48;;;;;;;;;;5028472;28;20033;-57
2022/07/07 06:41:39;;;;;;;1.63;1.23;;;;;;;;;;5028213;28;20538;-57
2022/07/07 06:44:05;;;;;;;0.85;0.82;;;;;;;;;;5028273;28;20029;-59
2022/07/07 06:46:31;;;;;;;3.10;1.23;;;;;;;;;;5028171;28;20079;-58
2022/07/07 06:48:58;;;;;;;2.00;1.02;;;;;;;;;;5030310;28;20543;-59
2022/07/07 06:51:24;;;;;;;1.40;0.90;;;;;;;;;;5041257;28;20053;-58
2022/07/07 06:53:50;;;;;;;1.23;1.10;;;;;;;;;;5030870;28;20119;-59
2022/07/07 06:56:16;;;;;;;1.10;0.80;;;;;;;;;;5029969;28;20037;-58
2022/07/07 06:58:42;;;;;;;2.08;0.90;;;;;;;;;;5028334;28;20037;-59
2022/07/07 07:01:08;;;;;;;2.40;1.00;;;;;;;;;;5028140;28;20026;-59
2022/07/07 07:03:35;;;;;;;2.15;0.80;;;;;;;;;;5029024;28;20043;-58
2022/07/07 07:06:01;;;;;;;2.88;0.70;;;;;;;;;;5030020;28;20476;-59
2022/07/07 07:08:27;;;;;;;2.85;0.88;;;;;;;;;;5028094;28;20393;-59
2022/07/07 07:10:52;;;;;;;0.98;0.75;;;;;;;;;;5028885;28;20026;-57
2022/07/07 07:13:19;;;;;;;1.48;0.70;;;;;;;;;;5029109;28;20413;-59
2022/07/07 07:15:45;;;;;;;1.30;0.85;;;;;;;;;;5029668;28;20029;-58
2022/07/07 07:18:11;;;;;;;1.27;0.77;;;;;;;;;;5028095;28;20465;-58
2022/07/07 07:20:39;;;;;;;2.03;0.98;;;;;;;;;;5029083;28;20033;-59
2022/07/07 07:23:05;;;;;;;0.80;0.75;;;;;;;;;;5028578;28;20041;-59
2022/07/07 07:25:31;;;;;;;1.23;0.95;;;;;;;;;;5027736;28;20029;-58
2022/07/07 07:27:57;;;;;;;3.08;1.02;;;;;;;;;;5027869;28;20038;-59
2022/07/07 07:30:23;;;;;;;1.00;0.90;;;;;;;;;;5026527;28;20156;-59
2022/07/07 07:32:49;;;;;;;0.82;0.70;;;;;;;;;;5029314;28;20041;-59
2022/07/07 07:35:15;;;;;;;1.10;1.00;;;;;;;;;;5030880;28;20040;-59
2022/07/07 07:37:42;;;;;;;2.05;1.27;;;;;;;;;;5029948;28;20104;-58
2022/07/07 07:40:09;;;;;;;2.17;0.82;;;;;;;;;;5028336;28;20467;-57
2022/07/07 07:42:36;;;;;;;0.82;0.75;;;;;;;;;;5028272;28;20103;-58
2022/07/07 07:45:11;;;;;;;2.58;1.08;;;;;;;;;;5029168;28;20080;-59
2022/07/07 07:47:42;;;;;;;1.13;1.02;;;;;;;;;;5025879;28;20022;-59
2022/07/07 07:50:10;;;;;;;1.27;1.00;;;;;;;;;;5029031;28;20404;-58
2022/07/07 07:52:36;;;;;;;1.60;1.08;;;;;;;;;;5028793;28;21250;-59
2022/07/07 07:55:02;;;;;;;1.45;1.13;;;;;;;;;;5013000;28;20021;-59
2022/07/07 07:57:28;;;;;;;3.22;1.08;;;;;;;;;;5026902;28;20480;-58
2022/07/07 07:59:54;;;;;;;4.13;1.10;;;;;;;;;;5029272;28;20033;-58
2022/07/07 08:02:20;;;;;;;1.92;1.10;;;;;;;;;;5025681;28;20176;-58
2022/07/07 08:04:46;;;;;;;0.80;0.77;;;;;;;;;;5028324;28;20025;-59
2022/07/07 08:07:12;;;;;;;0.90;0.80;;;;;;;;;;5027178;28;20044;-59
2022/07/07 08:09:38;;;;;;;1.23;1.10;;;;;;;;;;5030123;28;20466;-58
2022/07/07 08:12:05;;;;;;;1.10;0.90;;;;;;;;;;5028772;28;20067;-59
2022/07/07 08:14:31;;;;;;;1.08;0.98;;;;;;;;;;5026761;28;20496;-59
2022/07/07 08:16:57;;;;;;;0.70;0.70;;;;;;;;;;5028901;28;20097;-59
2022/07/07 08:19:23;;;;;;;1.15;1.00;;;;;;;;;;5027760;28;20105;-58
2022/07/07 08:21:50;;;;;;;1.10;1.00;;;;;;;;;;5028089;28;20116;-59
2022/07/07 08:24:17;;;;;;;1.25;1.10;;;;;;;;;;5029233;28;20037;-59
2022/07/07 08:26:44;;;;;;;0.63;0.63;;;;;;;;;;5026261;28;20125;-59
2022/07/07 08:29:10;;;;;;;0.65;0.65;;;;;;;;;;5009205;28;20112;-59
2022/07/07 08:31:36;;;;;;;1.05;0.80;;;;;;;;;;5009911;28;20105;-59
2022/07/07 08:34:02;;;;;;;0.73;0.70;;;;;;;;;;5008440;28;20033;-59
2022/07/07 08:36:30;;;;;;;1.38;0.80;;;;;;;;;;5014783;28;20036;-59
2022/07/07 08:38:56;;;;;;;1.00;0.70;;;;;;;;;;4996955;28;20036;-59
2022/07/07 08:41:22;;;;;;;0.80;0.60;;;;;;;;;;5012770;28;20129;-59
2022/07/07 08:43:48;;;;;;;1.58;0.85;;;;;;;;;;5011587;28;20030;-58
2022/07/07 08:46:14;;;;;;;0.80;0.80;;;;;;;;;;5013601;28;20481;-57
2022/07/07 08:48:40;;;;;;;1.08;0.80;;;;;;;;;;5010362;28;20029;-58
2022/07/07 08:51:06;;;;;;;0.80;0.80;;;;;;;;;;5011884;28;20477;-58
2022/07/07 08:53:34;;;;;;;1.23;0.80;;;;;;;;;;5013038;28;20398;-59
2022/07/07 08:56:03;;;;;;;0.88;0.80;;;;;;;;;;5013571;28;20100;-58
2022/07/07 08:58:30;;;;;;;0.90;0.75;;;;;;;;;;5011800;28;20389;-58
2022/07/07 09:00:56;;;;;;;1.10;1.00;;;;;;;;;;5013314;28;20468;-58
2022/07/07 09:03:22;;;;;;;1.58;0.85;;;;;;;;;;5012350;28;20026;-58
2022/07/07 09:05:49;;;;;;;0.73;0.73;;;;;;;;;;5011171;28;20049;-59
2022/07/07 09:08:19;;;;;;;2.20;1.00;;;;;;;;;;5012688;28;20026;-57
2022/07/07 09:10:45;;;;;;;1.60;0.85;;;;;;;;;;5013735;28;20045;-59
2022/07/07 09:13:21;;;;;;;2.88;0.82;;;;;;;;;;5013664;28;20081;-59
2022/07/07 09:15:48;;;;;;;0.88;0.80;;;;;;;;;;5011018;28;20501;-59
2022/07/07 09:18:28;;;;;;;1.00;0.90;;;;;;;;;;5012171;28;20549;-59
2022/07/07 09:20:55;;;;;;;2.25;1.13;;;;;;;;;;5011645;28;20557;-59
2022/07/07 09:23:21;;;;;;;0.80;0.80;;;;;;;;;;5015439;28;20037;-59
2022/07/07 09:25:47;;;;;;;2.03;1.10;;;;;;;;;;5011613;28;20034;-59
2022/07/07 09:28:13;;;;;;;1.30;0.88;;;;;;;;;;5027898;28;20047;-59
2022/07/07 09:30:43;;;;;;;1.55;1.08;;;;;;;;;;5031370;28;20029;-59
2022/07/07 09:33:10;;;;;;;1.23;1.02;;;;;;;;;;5031141;28;20536;-58
2022/07/07 09:38:22;;;;;;;1.15;1.00;;;;;;;;;;5025900;28;20087;-59
2022/07/07 09:40:52;;;;;;;1.35;1.17;;;;;;;;;;5032040;28;20026;-58
2022/07/07 09:43:19;;;;;;;1.50;1.30;;;;;;;;;;5028700;28;20030;-59
2022/07/07 09:46:03;;;;;;;1.40;1.23;;;;;;;;;;5031121;28;20075;-59
2022/07/07 09:48:29;;;;;;;2.10;1.30;;;;;;;;;;5029260;28;20025;-59
2022/07/07 09:51:10;;;;;;;1.55;1.20;;;;;;;;;;5031414;28;20069;-59
2022/07/07 09:53:51;;;;;;;2.00;1.50;;;;;;;;;;5034514;28;20436;-59
2022/07/07 09:56:17;;;;;;;1.48;1.38;;;;;;;;;;5035522;28;20033;-58
2022/07/07 09:58:43;;;;;;;1.40;1.30;;;;;;;;;;5027151;28;20099;-59
2022/07/07 10:01:09;;;;;;;1.48;1.38;;;;;;;;;;5027108;28;20113;-59
2022/07/07 10:03:35;;;;;;;2.30;1.70;;;;;;;;;;5027837;28;20036;-57
2022/07/07 10:06:02;;;;;;;1.80;1.70;;;;;;;;;;5030642;28;20156;-58
2022/07/07 10:08:30;;;;;;;3.25;1.88;;;;;;;;;;5030654;28;20037;-58
2022/07/07 10:10:57;;;;;;;2.20;1.65;;;;;;;;;;5030871;28;20496;-58
2022/07/07 10:13:23;;;;;;;2.13;1.75;;;;;;;;;;5031885;28;20036;-59
2022/07/07 10:15:49;;;;;;;2.92;1.50;;;;;;;;;;5031027;28;20100;-58
2022/07/07 10:18:16;;;;;;;2.55;2.15;;;;;;;;;;5030540;28;20112;-58
2022/07/07 10:20:42;;;;;;;1.75;1.48;;;;;;;;;;5031393;28;20033;-59
2022/07/07 10:23:08;;;;;;;2.75;2.08;;;;;;;;;;5031752;28;20029;-58
2022/07/07 10:25:34;;;;;;;2.20;2.00;;;;;;;;;;5031557;28;20469;-59
2022/07/07 10:28:00;;;;;;;2.65;2.13;;;;;;;;;;5027705;28;20519;-59
2022/07/07 10:30:33;;;;;;;2.38;2.17;;;;;;;;;;5025424;28;20022;-58
2022/07/07 10:32:59;;;;;;;2.40;2.17;;;;;;;;;;5022704;28;20117;-58
2022/07/07 10:35:27;;;;;;;4.40;1.95;;;;;;;;;;5031234;28;20248;-57
2022/07/07 10:37:54;;;;;;;3.50;2.10;;;;;;;;;;5029821;28;20030;-58
2022/07/07 10:40:28;;;;;;;4.28;2.50;;;;;;;;;;5031153;28;20044;-59
2022/07/07 10:43:20;;;;;;;2.80;2.10;;;;;;;;;;5031102;28;20051;-58
2022/07/07 10:45:47;;;;;;;3.25;2.63;;;;;;;;;;5018222;28;20129;-59
2022/07/07 10:48:31;;;;;;;3.05;2.30;;;;;;;;;;5029837;28;20108;-59
2022/07/07 10:51:16;;;;;;;3.20;2.38;;;;;;;;;;5025802;28;20030;-58
2022/07/07 10:53:54;;;;;;;2.83;2.63;;;;;;;;;;5019197;28;20485;-57
2022/07/07 10:56:21;;;;;;;3.60;2.38;;;;;;;;;;5031057;28;20029;-58
2022/07/07 10:58:53;;;;;;;3.17;2.95;;;;;;;;;;5030990;28;20027;-58
2022/07/07 11:01:20;;;;;;;2.92;2.70;;;;;;;;;;5026469;28;20104;-58
2022/07/07 11:03:46;;;;;;;3.58;2.53;;;;;;;;;;5028009;28;20076;-58
2022/07/07 11:06:12;;;;;;;3.65;2.88;;;;;;;;;;5026403;28;20026;-58
2022/07/07 11:08:38;;;;;;;3.78;2.70;;;;;;;;;;5027291;28;20026;-59
2022/07/07 11:11:05;;;;;;;2.60;2.40;;;;;;;;;;5029780;28;20037;-59
2022/07/07 11:13:32;;;;;;;3.03;2.72;;;;;;;;;;5026338;28;20054;-59
2022/07/07 11:16:20;;;;;;;4.20;2.80;;;;;;;;;;5008082;28;20037;-58
2022/07/07 11:18:50;;;;;;;3.40;3.10;;;;;;;;;;5024886;28;20032;-59
2022/07/07 11:21:17;;;;;;;4.00;2.78;;;;;;;;;;5022199;28;20030;-57
2022/07/07 11:23:55;;;;;;;8.77;3.30;;;;;;;;;;5024875;28;20036;-58
2022/07/07 11:26:25;;;;;;;4.00;2.78;;;;;;;;;;5023491;28;20037;-57
2022/07/07 11:28:52;;;;;;;5.18;2.95;;;;;;;;;;5022784;28;20450;-59
2022/07/07 11:31:18;;;;;;;3.22;2.80;;;;;;;;;;5029956;28;20410;-58
2022/07/07 11:33:49;;;;;;;3.45;3.15;;;;;;;;;;5030541;28;20515;-59
2022/07/07 11:36:16;;;;;;;3.28;2.97;;;;;;;;;;5028223;28;20026;-59
2022/07/07 11:38:43;;;;;;;3.25;2.95;;;;;;;;;;5019724;28;20489;-58
2022/07/07 11:41:09;;;;;;;3.20;2.90;;;;;;;;;;5020240;28;20033;-58
2022/07/07 11:43:35;;;;;;;3.35;2.85;;;;;;;;;;5026800;28;20144;-58
2022/07/07 11:46:01;;;;;;;4.60;2.83;;;;;;;;;;5025386;28;20045;-58
2022/07/07 11:48:34;;;;;;;3.38;2.40;;;;;;;;;;5026432;28;20029;-57
2022/07/07 11:51:00;;;;;;;4.10;2.55;;;;;;;;;;5026750;28;20042;-59
2022/07/07 11:53:26;;;;;;;2.65;2.45;;;;;;;;;;5030410;28;20033;-58
2022/07/07 11:55:52;;;;;;;2.95;2.15;;;;;;;;;;5030421;28;20110;-59
2022/07/07 11:58:18;;;;;;;2.90;2.60;;;;;;;;;;5023990;28;20105;-58
2022/07/07 12:00:44;;;;;;;4.22;2.20;;;;;;;;;;5024277;28;20034;-58
2022/07/07 12:03:10;;;;;;;2.22;1.73;;;;;;;;;;5028838;28;20029;-58
2022/07/07 12:05:44;;;;;;;2.65;2.28;;;;;;;;;;5027812;28;20113;-58
2022/07/07 12:08:12;;;;;;;2.05;1.80;;;;;;;;;;5030855;28;20026;-58
2022/07/07 12:10:39;;;;;;;3.88;2.88;;;;;;;;;;5033359;28;20429;-59
2022/07/07 12:13:07;;;;;;;2.22;2.03;;;;;;;;;;5037025;28;20511;-58
2022/07/07 12:15:36;;;;;;;2.20;2.00;;;;;;;;;;5032480;28;21733;-58
2022/07/07 12:18:03;;;;;;;3.45;1.95;;;;;;;;;;5025296;28;20037;-58
2022/07/07 12:20:29;;;;;;;4.35;1.80;;;;;;;;;;5031681;28;20036;-66
2022/07/07 12:22:57;;;;;;;1.75;1.60;;;;;;;;;;5031795;28;20053;-58
2022/07/07 12:25:27;;;;;;;3.50;1.95;;;;;;;;;;5033898;28;20026;-59
2022/07/07 12:28:00;;;;;;;2.10;1.90;;;;;;;;;;5033237;28;20046;-59
2022/07/07 12:30:27;;;;;;;1.70;1.50;;;;;;;;;;5033005;28;20091;-59
2022/07/07 12:32:53;;;;;;;3.08;1.50;;;;;;;;;;5030166;28;20049;-57
2022/07/07 12:35:26;;;;;;;1.90;1.58;;;;;;;;;;5026810;28;20220;-58
2022/07/07 12:37:52;;;;;;;1.35;1.25;;;;;;;;;;5032854;28;20116;-58
2022/07/07 12:40:18;;;;;;;2.72;1.40;;;;;;;;;;5032370;28;20193;-59
2022/07/07 12:42:45;;;;;;;1.80;1.42;;;;;;;;;;5033944;28;20034;-59
2022/07/07 12:45:12;;;;;;;2.42;1.80;;;;;;;;;;5033540;28;20068;-61
2022/07/07 12:47:51;;;;;;;2.15;1.60;;;;;;;;;;5033297;28;20033;-57
2022/07/07 12:50:17;;;;;;;6.53;1.80;;;;;;;;;;5033079;28;20472;-59
2022/07/07 12:52:56;;;;;;;2.15;1.73;;;;;;;;;;5032189;28;20451;-57
2022/07/07 12:55:23;;;;;;;1.80;1.70;;;;;;;;;;5033281;28;20057;-59
2022/07/07 12:57:49;;;;;;;2.60;1.38;;;;;;;;;;5033323;28;20022;-59
2022/07/07 13:00:25;;;;;;;1.67;1.55;;;;;;;;;;5032760;28;20037;-59
2022/07/07 13:02:52;;;;;;;1.98;1.40;;;;;;;;;;5030349;28;20112;-59
2022/07/07 13:05:18;;;;;;;2.15;1.95;;;;;;;;;;5028969;28;20025;-58
2022/07/07 13:07:44;;;;;;;1.85;1.35;;;;;;;;;;5026977;28;20105;-59
2022/07/07 13:10:09;;;;;;;1.10;1.00;;;;;;;;;;5024504;28;20108;-59
2022/07/07 13:12:36;;;;;;;2.35;1.27;;;;;;;;;;5026977;28;20033;-60
2022/07/07 13:15:02;;;;;;;1.25;1.15;;;;;;;;;;5040279;28;20052;-60
2022/07/07 13:17:28;;;;;;;1.33;0.80;;;;;;;;;;5038811;28;20049;-60
2022/07/07 13:19:54;;;;;;;1.85;1.00;;;;;;;;;;5030880;28;20116;-60
2022/07/07 13:22:20;;;;;;;1.20;0.80;;;;;;;;;;5032797;28;20037;-59
2022/07/07 13:24:46;;;;;;;1.23;0.60;;;;;;;;;;5029327;28;20440;-60
2022/07/07 13:27:12;;;;;;;0.40;0.30;;;;;;;;;;5044419;28;20049;-56
2022/07/07 13:29:38;;;;;;;2.10;0.25;;;;;;;;;;5031980;28;20740;-58
2022/07/07 13:32:04;;;;;;;0.70;0.20;;;;;;;;;;5032554;28;20041;-58
2022/07/07 13:34:30;;;;;;;0.77;0.38;;;;;;;;;;5031126;28;20039;-57
2022/07/07 13:36:57;;;;;;;0.40;0.20;;;;;;;;;;5032887;28;20014;-58
2022/07/07 13:39:23;;;;;;;0.73;0.50;;;;;;;;;;5029596;28;21681;-59
2022/07/07 13:41:50;;;;;;;3.55;0.40;;;;;;;;;;5013453;28;20034;-58
2022/07/07 13:44:16;;;;;;;0.47;0.40;;;;;;;;;;5028630;28;20129;-59
2022/07/07 13:46:42;;;;;;;1.30;0.38;;;;;;;;;;5018000;28;20029;-59
2022/07/07 13:49:08;;;;;;;0.88;0.52;;;;;;;;;;5022384;28;20437;-58
2022/07/07 13:51:34;;;;;;;0.50;0.43;;;;;;;;;;5030182;28;20108;-58
2022/07/07 13:54:00;;;;;;;3.78;0.70;;;;;;;;;;5026602;28;20500;-59
2022/07/07 13:56:26;;;;;;;1.30;0.70;;;;;;;;;;5031141;28;20108;-60
2022/07/07 13:58:51;;;;;;;1.90;0.80;;;;;;;;;;5023442;28;21509;-57
2022/07/07 14:01:17;;;;;;;0.65;0.50;;;;;;;;;;5026604;28;20107;-59
2022/07/07 14:03:43;;;;;;;1.25;0.70;;;;;;;;;;5023642;28;20096;-58
2022/07/07 14:06:10;;;;;;;1.40;0.60;;;;;;;;;;5010670;28;20036;-58
2022/07/07 14:08:36;;;;;;;1.00;0.80;;;;;;;;;;5023747;28;20029;-59
2022/07/07 14:11:02;;;;;;;2.75;0.60;;;;;;;;;;5026992;28;20037;-59
2022/07/07 14:13:28;;;;;;;3.05;0.95;;;;;;;;;;5025168;28;20053;-58
2022/07/07 14:15:54;;;;;;;1.92;0.98;;;;;;;;;;5027257;28;20025;-59
2022/07/07 14:18:20;;;;;;;2.28;1.20;;;;;;;;;;5028495;28;20029;-60
2022/07/07 14:20:46;;;;;;;3.08;1.10;;;;;;;;;;5027452;28;20037;-59
2022/07/07 14:23:12;;;;;;;2.10;1.27;;;;;;;;;;5030950;28;20026;-59
2022/07/07 14:25:38;;;;;;;1.45;1.25;;;;;;;;;;5030586;28;20656;-59
2022/07/07 14:28:04;;;;;;;2.70;1.70;;;;;;;;;;5029384;28;20043;-60
2022/07/07 14:30:30;;;;;;;3.13;1.40;;;;;;;;;;5026537;28;20021;-60
2022/07/07 14:32:56;;;;;;;6.00;1.70;;;;;;;;;;5030326;28;20064;-60
2022/07/07 14:35:22;;;;;;;2.17;1.40;;;;;;;;;;5031756;28;20025;-60
2022/07/07 14:37:48;;;;;;;1.77;1.23;;;;;;;;;;5029519;28;20057;-58
2022/07/07 14:40:14;;;;;;;2.08;1.50;;;;;;;;;;5008166;28;20045;-60
2022/07/07 14:42:40;;;;;;;4.78;2.20;;;;;;;;;;5025236;28;20033;-59
2022/07/07 14:45:06;;;;;;;5.05;1.67;;;;;;;;;;5029845;28;20096;-60